createdAt,value
2019-05-20T00:02:02.465Z,46.47
2019-05-20T00:04:30.773Z,46.43
2019-05-20T00:06:59.071Z,46.32
2019-05-20T00:09:27.368Z,46.40
2019-05-20T00:11:55.484Z,46.52
2019-05-20T00:14:23.771Z,46.14
2019-05-20T00:16:51.883Z,46.43
2019-05-20T00:19:20.091Z,46.70
2019-05-20T00:21:48.224Z,47.79
2019-05-20T00:24:16.299Z,54.61
2019-05-20T00:26:44.424Z,65.81
2019-05-20T00:29:12.635Z,54.65
2019-05-20T00:31:40.805Z,48.90
2019-05-20T00:34:09.105Z,47.94
2019-05-20T00:36:37.282Z,59.00
2019-05-20T00:39:20.039Z,54.76
2019-05-20T00:41:48.279Z,48.74
2019-05-20T00:44:16.511Z,47.94
2019-05-20T00:46:44.705Z,47.69
2019-05-20T00:49:12.878Z,47.65
2019-05-20T00:51:41.032Z,47.61
2019-05-20T00:54:09.297Z,47.53
2019-05-20T00:56:37.671Z,47.54
2019-05-20T00:59:06.193Z,47.71
2019-05-20T01:01:34.448Z,47.61
2019-05-20T01:04:02.600Z,48.15
2019-05-20T01:06:30.683Z,47.61
2019-05-20T01:08:58.870Z,47.42
2019-05-20T01:11:26.981Z,47.42
2019-05-20T01:13:55.138Z,47.83
2019-05-20T01:16:23.286Z,47.83
2019-05-20T01:18:51.480Z,47.29
2019-05-20T01:21:19.591Z,47.53
2019-05-20T01:23:47.717Z,47.12
2019-05-20T01:26:15.873Z,47.49
2019-05-20T01:28:44.023Z,47.73
2019-05-20T01:31:12.179Z,47.63
2019-05-20T01:33:40.287Z,47.54
2019-05-20T01:36:08.470Z,47.63
2019-05-20T01:38:36.611Z,47.69
2019-05-20T01:41:04.895Z,47.90
2019-05-20T01:43:33.010Z,47.63
2019-05-20T01:46:01.783Z,47.52
2019-05-20T01:48:29.855Z,47.52
2019-05-20T01:50:58.181Z,47.59
2019-05-20T01:53:26.338Z,47.70
2019-05-20T01:55:54.505Z,48.42
2019-05-20T01:58:22.645Z,47.81
2019-05-20T02:00:50.832Z,47.68
2019-05-20T02:03:31.106Z,47.68
2019-05-20T02:05:48.946Z,47.45
2019-05-20T02:08:17.136Z,47.60
2019-05-20T02:10:45.233Z,47.74
2019-05-20T02:13:13.356Z,47.76
2019-05-20T02:15:47.268Z,47.66
2019-05-20T02:18:15.364Z,47.50
2019-05-20T02:20:43.498Z,47.62
2019-05-20T02:23:15.599Z,47.93
2019-05-20T02:26:03.893Z,47.87
2019-05-20T02:28:32.072Z,47.56
2019-05-20T02:31:00.183Z,47.77
2019-05-20T02:33:28.317Z,47.36
2019-05-20T02:35:56.419Z,47.97
2019-05-20T02:38:24.498Z,47.86
2019-05-20T02:40:52.693Z,47.60
2019-05-20T02:43:20.856Z,48.11
2019-05-20T02:45:49.045Z,49.09
2019-05-20T02:48:17.230Z,48.28
2019-05-20T02:50:45.356Z,52.39
2019-05-20T02:53:13.440Z,48.47
2019-05-20T02:55:41.548Z,48.50
2019-05-20T02:58:09.668Z,49.25
2019-05-20T03:00:37.778Z,56.68
2019-05-20T03:03:05.909Z,73.07
2019-05-20T03:05:33.997Z,74.23
2019-05-20T03:08:02.358Z,62.72
2019-05-20T03:10:30.467Z,73.29
2019-05-20T03:12:58.587Z,53.11
2019-05-20T03:15:26.737Z,52.70
2019-05-20T03:17:54.875Z,48.60
2019-05-20T03:20:23.063Z,58.88
2019-05-20T03:22:51.173Z,48.78
2019-05-20T03:25:19.388Z,71.42
2019-05-20T03:27:47.620Z,70.53
2019-05-20T03:30:15.943Z,50.67
2019-05-20T03:32:44.111Z,72.92
2019-05-20T03:35:12.561Z,62.52
2019-05-20T03:37:40.761Z,55.54
2019-05-20T03:40:09.117Z,51.05
2019-05-20T03:42:37.344Z,60.35
2019-05-20T03:45:05.811Z,48.30
2019-05-20T03:47:33.945Z,47.55
2019-05-20T03:50:02.207Z,68.94
2019-05-20T03:52:30.403Z,49.04
2019-05-20T03:54:58.588Z,48.72
2019-05-20T03:57:26.774Z,60.47
2019-05-20T03:59:54.965Z,49.42
2019-05-20T04:02:23.096Z,48.46
2019-05-20T04:05:01.496Z,49.86
2019-05-20T04:07:21.159Z,47.30
2019-05-20T04:09:49.292Z,47.56
2019-05-20T04:12:17.583Z,48.08
2019-05-20T04:14:45.764Z,47.22
2019-05-20T04:17:13.912Z,49.16
2019-05-20T04:19:42.048Z,47.32
2019-05-20T04:22:10.175Z,47.00
2019-05-20T04:24:38.452Z,47.20
2019-05-20T04:27:06.629Z,59.60
2019-05-20T04:29:34.802Z,57.04
2019-05-20T04:32:02.950Z,62.90
2019-05-20T04:34:31.132Z,75.17
2019-05-20T04:36:59.300Z,76.12
2019-05-20T04:39:27.469Z,78.02
2019-05-20T04:41:55.659Z,78.52
2019-05-20T04:44:23.873Z,66.13
2019-05-20T04:46:52.004Z,50.49
2019-05-20T04:49:20.278Z,48.76
2019-05-20T04:51:48.471Z,72.81
2019-05-20T04:54:16.744Z,50.90
2019-05-20T04:56:44.957Z,68.99
2019-05-20T04:59:14.938Z,74.81
2019-05-20T05:01:43.393Z,74.45
2019-05-20T05:04:11.591Z,54.02
2019-05-20T05:06:39.926Z,54.49
2019-05-20T05:09:08.483Z,73.53
2019-05-20T05:11:36.893Z,52.12
2019-05-20T05:14:05.037Z,51.97
2019-05-20T05:16:33.181Z,73.74
2019-05-20T05:19:01.427Z,74.63
2019-05-20T05:21:29.621Z,75.36
2019-05-20T05:23:59.459Z,77.12
2019-05-20T05:26:27.793Z,77.46
2019-05-20T05:28:55.953Z,77.79
2019-05-20T05:31:24.197Z,78.38
2019-05-20T05:33:54.317Z,78.31
2019-05-20T05:36:22.086Z,78.50
2019-05-20T05:38:50.279Z,78.27
2019-05-20T05:41:18.495Z,77.92
2019-05-20T05:43:46.666Z,77.69
2019-05-20T05:46:14.827Z,77.06
2019-05-20T05:48:43.002Z,78.05
2019-05-20T05:51:11.212Z,76.23
2019-05-20T05:53:39.326Z,76.87
2019-05-20T05:56:07.454Z,72.81
2019-05-20T05:58:35.624Z,74.10
2019-05-20T06:01:03.763Z,51.92
2019-05-20T06:03:31.974Z,73.75
2019-05-20T06:06:11.208Z,62.02
2019-05-20T06:08:30.133Z,70.11
2019-05-20T06:10:58.282Z,49.91
2019-05-20T06:13:26.486Z,64.75
2019-05-20T06:15:54.843Z,69.74
2019-05-20T06:18:22.992Z,70.55
2019-05-20T06:20:51.204Z,72.02
2019-05-20T06:23:19.468Z,70.06
2019-05-20T06:25:47.721Z,71.22
2019-05-20T06:28:15.898Z,54.98
2019-05-20T06:30:46.420Z,68.60
2019-05-20T06:33:14.718Z,66.33
2019-05-20T06:35:42.984Z,66.33
2019-05-20T06:38:19.519Z,68.65
2019-05-20T06:40:47.718Z,54.94
2019-05-20T06:43:15.920Z,67.43
2019-05-20T06:45:44.150Z,66.64
2019-05-20T06:48:12.395Z,62.25
2019-05-20T06:50:40.524Z,60.40
2019-05-20T06:53:08.728Z,67.03
2019-05-20T06:55:36.879Z,52.20
2019-05-20T06:58:05.030Z,52.74
2019-05-20T07:00:35.412Z,54.73
2019-05-20T07:03:03.680Z,54.40
2019-05-20T07:05:31.815Z,63.50
2019-05-20T07:08:01.450Z,65.81
2019-05-20T07:10:29.821Z,60.61
2019-05-20T07:12:58.272Z,64.89
2019-05-20T07:15:26.433Z,66.71
2019-05-20T07:17:54.595Z,64.46
2019-05-20T07:20:22.753Z,65.60
2019-05-20T07:22:55.714Z,58.99
2019-05-20T07:25:21.084Z,63.70
2019-05-20T07:27:49.198Z,54.86
2019-05-20T07:30:17.375Z,54.57
2019-05-20T07:32:45.507Z,61.87
2019-05-20T07:35:28.956Z,58.57
2019-05-20T07:37:43.779Z,61.41
2019-05-20T07:40:13.528Z,64.45
2019-05-20T07:42:41.709Z,63.51
2019-05-20T07:45:10.335Z,63.82
2019-05-20T07:47:39.018Z,61.20
2019-05-20T07:50:09.026Z,64.27
2019-05-20T07:52:36.425Z,64.39
2019-05-20T07:55:05.230Z,58.54
2019-05-20T07:57:36.372Z,57.98
2019-05-20T08:00:05.161Z,61.85
2019-05-20T08:02:33.554Z,56.75
2019-05-20T08:05:01.835Z,59.27
2019-05-20T08:07:50.701Z,55.30
2019-05-20T08:10:00.320Z,57.99
2019-05-20T08:12:28.603Z,62.86
2019-05-20T08:14:57.004Z,59.97
2019-05-20T08:17:25.171Z,56.36
2019-05-20T08:19:53.358Z,61.00
2019-05-20T08:22:21.555Z,62.15
2019-05-20T08:24:49.755Z,62.40
2019-05-20T08:27:17.941Z,54.51
2019-05-20T08:29:46.207Z,53.68
2019-05-20T08:32:14.529Z,56.35
2019-05-20T08:34:42.718Z,55.67
2019-05-20T08:37:10.893Z,59.27
2019-05-20T08:39:39.123Z,58.24
2019-05-20T08:42:07.334Z,55.62
2019-05-20T08:44:35.720Z,53.57
2019-05-20T08:47:04.129Z,60.54
2019-05-20T08:49:32.464Z,59.44
2019-05-20T08:52:00.972Z,59.42
2019-05-20T08:54:29.217Z,53.97
2019-05-20T08:56:57.509Z,56.17
2019-05-20T08:59:25.757Z,54.92
2019-05-20T09:01:53.907Z,53.59
2019-05-20T09:04:22.182Z,52.53
2019-05-20T09:06:50.405Z,55.45
2019-05-20T09:09:18.637Z,51.41
2019-05-20T09:11:47.862Z,56.88
2019-05-20T09:14:16.306Z,50.36
2019-05-20T09:16:44.454Z,50.14
2019-05-20T09:19:12.629Z,58.67
2019-05-20T09:21:40.937Z,53.97
2019-05-20T09:24:09.150Z,60.05
2019-05-20T09:26:37.697Z,54.45
2019-05-20T09:29:05.964Z,56.50
2019-05-20T09:31:34.348Z,59.49
2019-05-20T09:34:02.602Z,55.93
2019-05-20T09:36:30.809Z,53.26
2019-05-20T09:38:59.125Z,54.49
2019-05-20T09:41:27.373Z,60.63
2019-05-20T09:43:55.598Z,61.03
2019-05-20T09:46:23.859Z,57.39
2019-05-20T09:48:52.089Z,58.83
2019-05-20T09:51:20.318Z,57.79
2019-05-20T09:53:48.558Z,54.39
2019-05-20T09:56:16.834Z,55.05
2019-05-20T09:58:45.054Z,50.22
2019-05-20T10:01:13.243Z,52.44
2019-05-20T10:03:41.323Z,51.23
2019-05-20T10:06:09.676Z,49.89
2019-05-20T10:08:44.447Z,51.17
2019-05-20T10:11:07.801Z,56.60
2019-05-20T10:13:36.054Z,54.39
2019-05-20T10:16:04.327Z,58.24
2019-05-20T10:18:37.203Z,50.99
2019-05-20T10:21:01.331Z,52.14
2019-05-20T10:23:29.519Z,48.16
2019-05-20T10:25:57.639Z,44.87
2019-05-20T10:28:25.859Z,42.05
2019-05-20T10:30:54.029Z,41.94
2019-05-20T10:33:22.276Z,48.05
2019-05-20T10:35:50.380Z,53.55
2019-05-20T10:38:18.553Z,48.48
2019-05-20T10:40:46.765Z,45.18
2019-05-20T10:43:14.965Z,46.91
2019-05-20T10:45:43.154Z,49.75
2019-05-20T10:48:11.250Z,49.31
2019-05-20T10:50:39.420Z,48.02
2019-05-20T10:53:07.619Z,48.50
2019-05-20T10:55:35.836Z,52.77
2019-05-20T10:58:04.008Z,53.14
2019-05-20T11:00:32.242Z,50.94
2019-05-20T11:03:00.360Z,50.84
2019-05-20T11:05:28.568Z,52.07
2019-05-20T11:07:56.971Z,45.41
2019-05-20T11:10:25.352Z,48.34
2019-05-20T11:12:53.521Z,43.53
2019-05-20T11:15:21.856Z,52.15
2019-05-20T11:17:50.047Z,43.76
2019-05-20T11:20:18.636Z,47.29
2019-05-20T11:22:48.513Z,47.86
2019-05-20T11:25:17.298Z,44.25
2019-05-20T11:27:45.518Z,45.79
2019-05-20T11:30:14.202Z,51.73
2019-05-20T11:32:42.427Z,46.82
2019-05-20T11:35:11.222Z,43.60
2019-05-20T11:37:39.439Z,42.01
2019-05-20T11:40:09.055Z,46.96
2019-05-20T11:42:37.675Z,38.94
2019-05-20T11:45:06.768Z,42.13
2019-05-20T11:47:35.028Z,38.21
2019-05-20T11:50:03.465Z,48.90
2019-05-20T11:52:31.601Z,43.05
2019-05-20T11:54:59.751Z,38.96
2019-05-20T11:57:27.962Z,40.24
2019-05-20T11:59:56.219Z,37.01
2019-05-20T12:02:24.418Z,39.10
2019-05-20T12:04:52.658Z,33.61
2019-05-20T12:07:21.003Z,43.01
2019-05-20T12:09:50.268Z,40.12
2019-05-20T12:12:17.720Z,43.77
2019-05-20T12:14:45.965Z,45.60
2019-05-20T12:17:14.351Z,46.61
2019-05-20T12:19:42.581Z,43.49
2019-05-20T12:22:10.876Z,36.72
2019-05-20T12:24:39.082Z,46.33
2019-05-20T12:27:07.283Z,49.08
2019-05-20T12:29:35.439Z,41.16
2019-05-20T12:32:03.854Z,42.62
2019-05-20T12:34:31.952Z,45.16
2019-05-20T12:37:00.217Z,45.72
2019-05-20T12:39:28.497Z,48.64
2019-05-20T12:41:56.725Z,47.14
2019-05-20T12:44:24.929Z,46.75
2019-05-20T12:46:53.298Z,45.98
2019-05-20T12:49:21.602Z,45.39
2019-05-20T12:51:49.767Z,48.92
2019-05-20T12:54:17.876Z,44.86
2019-05-20T12:56:46.024Z,47.00
2019-05-20T12:59:14.287Z,46.13
2019-05-20T13:01:42.410Z,43.85
2019-05-20T13:04:10.840Z,49.01
2019-05-20T13:06:38.987Z,40.87
2019-05-20T13:09:07.871Z,40.55
2019-05-20T13:11:36.223Z,40.60
2019-05-20T13:14:04.481Z,36.31
2019-05-20T13:16:32.626Z,43.91
2019-05-20T13:19:00.778Z,47.16
2019-05-20T13:21:29.033Z,47.82
2019-05-20T13:23:57.957Z,46.43
2019-05-20T13:26:26.298Z,48.33
2019-05-20T13:28:58.938Z,52.43
2019-05-20T13:31:24.411Z,48.41
2019-05-20T13:33:52.546Z,46.05
2019-05-20T13:36:20.726Z,44.88
2019-05-20T13:38:48.986Z,48.16
2019-05-20T13:41:17.188Z,49.79
2019-05-20T13:43:45.315Z,42.45
2019-05-20T13:46:13.533Z,48.65
2019-05-20T13:48:41.676Z,41.36
2019-05-20T13:51:09.956Z,46.62
2019-05-20T13:53:38.278Z,48.31
2019-05-20T13:56:06.516Z,47.45
2019-05-20T13:58:34.798Z,50.23
2019-05-20T14:01:03.101Z,47.21
2019-05-20T14:03:31.348Z,52.60
2019-05-20T14:05:59.523Z,50.00
2019-05-20T14:08:27.729Z,48.15
2019-05-20T14:11:04.271Z,47.27
2019-05-20T14:13:25.773Z,47.71
2019-05-20T14:15:53.956Z,47.93
2019-05-20T14:18:22.158Z,49.39
2019-05-20T14:20:50.328Z,46.29
2019-05-20T14:23:18.556Z,42.13
2019-05-20T14:25:46.902Z,43.63
2019-05-20T14:28:15.058Z,48.56
2019-05-20T14:30:43.226Z,45.79
2019-05-20T14:33:11.432Z,46.68
2019-05-20T14:35:39.594Z,48.02
2019-05-20T14:38:07.707Z,51.68
2019-05-20T14:40:36.029Z,49.10
2019-05-20T14:43:04.211Z,44.17
2019-05-20T14:45:32.442Z,48.51
2019-05-20T14:48:00.921Z,46.10
2019-05-20T14:50:29.068Z,49.75
2019-05-20T14:52:57.287Z,49.29
2019-05-20T14:55:25.534Z,49.49
2019-05-20T14:57:53.868Z,48.53
2019-05-20T15:00:22.135Z,51.26
2019-05-20T15:02:50.357Z,50.49
2019-05-20T15:05:18.542Z,56.56
2019-05-20T15:07:47.209Z,53.45
2019-05-20T15:10:17.231Z,51.29
2019-05-20T15:12:45.429Z,52.07
2019-05-20T15:15:14.349Z,50.18
2019-05-20T15:17:42.529Z,47.83
2019-05-20T15:20:11.162Z,46.46
2019-05-20T15:22:39.394Z,46.67
2019-05-20T15:25:07.895Z,53.78
2019-05-20T15:27:36.105Z,55.36
2019-05-20T15:30:04.503Z,51.72
2019-05-20T15:32:32.694Z,53.88
2019-05-20T15:35:00.932Z,61.22
2019-05-20T15:37:29.332Z,53.36
2019-05-20T15:39:57.481Z,49.72
2019-05-20T15:42:25.745Z,48.43
2019-05-20T15:44:53.993Z,58.82
2019-05-20T15:47:22.227Z,51.54
2019-05-20T15:49:50.534Z,45.16
2019-05-20T15:52:18.732Z,47.85
2019-05-20T15:54:47.069Z,56.44
2019-05-20T15:57:15.298Z,56.51
2019-05-20T15:59:46.420Z,52.88
2019-05-20T16:02:12.357Z,65.19
2019-05-20T16:04:40.607Z,64.28
2019-05-20T16:07:08.732Z,60.47
2019-05-20T16:09:37.132Z,65.00
2019-05-20T16:12:05.363Z,62.29
2019-05-20T16:14:33.515Z,65.39
2019-05-20T16:17:01.760Z,68.67
2019-05-20T16:19:29.930Z,69.67
2019-05-20T16:21:58.142Z,67.15
2019-05-20T16:24:26.469Z,64.80
2019-05-20T16:26:54.633Z,63.98
2019-05-20T16:29:22.915Z,71.05
2019-05-20T16:31:51.070Z,69.65
2019-05-20T16:34:19.338Z,61.37
2019-05-20T16:36:47.617Z,70.47
2019-05-20T16:39:15.817Z,63.97
2019-05-20T16:41:44.028Z,70.15
2019-05-20T16:44:12.328Z,63.34
2019-05-20T16:46:40.627Z,59.92
2019-05-20T16:49:08.812Z,61.42
2019-05-20T16:51:37.289Z,71.24
2019-05-20T16:54:05.703Z,67.90
2019-05-20T16:56:33.930Z,71.25
2019-05-20T16:59:02.050Z,59.61
2019-05-20T17:01:30.244Z,54.70
2019-05-20T17:03:58.470Z,63.22
2019-05-20T17:06:27.641Z,64.70
2019-05-20T17:08:55.797Z,68.77
2019-05-20T17:11:24.086Z,69.63
2019-05-20T17:13:52.347Z,69.06
2019-05-20T17:16:20.744Z,59.45
2019-05-20T17:18:49.097Z,69.28
2019-05-20T17:21:17.305Z,71.05
2019-05-20T17:23:45.486Z,70.88
2019-05-20T17:26:13.641Z,61.26
2019-05-20T17:28:43.354Z,68.34
2019-05-20T17:31:11.564Z,64.12
2019-05-20T17:33:39.911Z,67.80
2019-05-20T17:36:08.096Z,69.17
2019-05-20T17:38:36.409Z,64.84
2019-05-20T17:41:04.586Z,72.83
2019-05-20T17:43:32.852Z,65.05
2019-05-20T17:46:01.033Z,70.04
2019-05-20T17:48:29.157Z,73.79
2019-05-20T17:50:57.310Z,73.17
2019-05-20T17:53:25.556Z,72.36
2019-05-20T17:55:53.801Z,72.80
2019-05-20T17:58:21.953Z,66.38
2019-05-20T18:00:50.136Z,74.57
2019-05-20T18:03:18.323Z,74.57
2019-05-20T18:05:46.483Z,73.39
2019-05-20T18:08:14.816Z,69.46
2019-05-20T18:10:42.925Z,63.99
2019-05-20T18:13:11.310Z,62.66
2019-05-20T18:15:39.626Z,64.52
2019-05-20T18:18:08.340Z,66.49
2019-05-20T18:20:36.634Z,76.11
2019-05-20T18:23:04.875Z,75.98
2019-05-20T18:25:34.340Z,79.28
2019-05-20T18:28:02.645Z,76.38
2019-05-20T18:30:30.884Z,77.28
2019-05-20T18:32:59.096Z,77.28
2019-05-20T18:35:27.325Z,69.86
2019-05-20T18:37:55.692Z,77.36
2019-05-20T18:40:23.862Z,79.52
2019-05-20T18:42:52.059Z,78.83
2019-05-20T18:45:20.348Z,73.07
2019-05-20T18:47:48.530Z,64.73
2019-05-20T18:50:16.854Z,60.05
2019-05-20T18:52:45.056Z,62.86
2019-05-20T18:55:13.266Z,58.65
2019-05-20T18:57:41.469Z,65.59
2019-05-20T19:00:11.348Z,77.89
2019-05-20T19:02:39.738Z,79.31
2019-05-20T19:05:08.914Z,77.01
2019-05-20T19:07:37.039Z,79.93
2019-05-20T19:10:06.000Z,74.54
2019-05-20T19:12:34.263Z,81.44
2019-05-20T19:15:02.478Z,80.99
2019-05-20T19:17:30.939Z,79.23
2019-05-20T19:19:59.378Z,80.15
2019-05-20T19:22:27.547Z,79.57
2019-05-20T19:24:55.769Z,66.90
2019-05-20T19:27:24.105Z,72.89
2019-05-20T19:29:52.321Z,70.42
2019-05-20T19:32:22.229Z,60.70
2019-05-20T19:34:50.422Z,59.55
2019-05-20T19:37:18.880Z,58.88
2019-05-20T19:39:47.057Z,63.07
2019-05-20T19:42:15.272Z,71.03
2019-05-20T19:44:43.512Z,66.53
2019-05-20T19:47:11.746Z,61.89
2019-05-20T19:49:42.429Z,61.98
2019-05-20T19:52:10.099Z,61.54
2019-05-20T19:54:38.362Z,62.24
2019-05-20T19:57:06.855Z,61.54
2019-05-20T19:59:35.392Z,71.76
2019-05-20T20:02:16.470Z,77.77
2019-05-20T20:04:34.056Z,68.51
2019-05-20T20:07:02.265Z,60.84
2019-05-20T20:09:30.674Z,59.65
2019-05-20T20:11:58.809Z,58.84
2019-05-20T20:14:27.060Z,58.20
2019-05-20T20:16:55.273Z,63.61
2019-05-20T20:19:23.419Z,57.91
2019-05-20T20:21:51.573Z,63.17
2019-05-20T20:24:19.767Z,58.30
2019-05-20T20:26:48.009Z,57.95
2019-05-20T20:29:16.251Z,58.74
2019-05-20T20:31:44.475Z,80.01
2019-05-20T20:34:12.656Z,62.75
2019-05-20T20:36:40.893Z,64.73
2019-05-20T20:39:09.184Z,59.97
2019-05-20T20:41:37.352Z,62.74
2019-05-20T20:44:05.666Z,59.82
2019-05-20T20:46:33.833Z,64.21
2019-05-20T20:49:02.033Z,63.11
2019-05-20T20:51:30.231Z,78.38
2019-05-20T20:53:58.420Z,79.92
2019-05-20T20:56:26.697Z,74.19
2019-05-20T20:58:54.879Z,82.19
2019-05-20T21:01:23.040Z,82.06
2019-05-20T21:03:51.269Z,65.12
2019-05-20T21:06:19.497Z,60.89
2019-05-20T21:08:47.686Z,64.11
2019-05-20T21:11:15.877Z,68.11
2019-05-20T21:13:44.021Z,72.99
2019-05-20T21:16:12.253Z,72.13
2019-05-20T21:18:40.565Z,74.63
2019-05-20T21:21:09.069Z,62.14
2019-05-20T21:23:38.120Z,61.95
2019-05-20T21:26:06.527Z,72.22
2019-05-20T21:28:34.722Z,79.38
2019-05-20T21:31:02.913Z,79.99
2019-05-20T21:33:31.051Z,79.00
2019-05-20T21:35:59.299Z,64.04
2019-05-20T21:38:27.547Z,67.54
2019-05-20T21:40:55.813Z,77.37
2019-05-20T21:43:24.044Z,80.38
2019-05-20T21:45:52.275Z,78.71
2019-05-20T21:48:20.434Z,80.88
2019-05-20T21:50:48.611Z,81.68
2019-05-20T21:53:16.926Z,80.60
2019-05-20T21:55:45.222Z,79.47
2019-05-20T21:58:14.266Z,81.62
2019-05-20T22:00:48.414Z,79.73
2019-05-20T22:03:24.123Z,80.74
2019-05-20T22:05:46.592Z,76.78
2019-05-20T22:08:14.997Z,81.45
2019-05-20T22:10:43.352Z,83.00
2019-05-20T22:13:11.536Z,83.00
2019-05-20T22:15:39.720Z,84.13
2019-05-20T22:18:07.992Z,82.00
2019-05-20T22:20:36.232Z,81.02
2019-05-20T22:23:41.628Z,83.99
2019-05-20T22:26:09.985Z,82.49
2019-05-20T22:28:38.256Z,82.49
2019-05-20T22:31:06.460Z,77.85
2019-05-20T22:33:41.593Z,81.45
2019-05-20T22:36:04.700Z,79.27
2019-05-20T22:38:32.834Z,82.46
2019-05-20T22:41:01.000Z,81.58
2019-05-20T22:43:29.160Z,81.58
2019-05-20T22:45:57.395Z,80.73
2019-05-20T22:48:25.566Z,83.31
2019-05-20T22:50:53.788Z,82.07
2019-05-20T22:53:22.223Z,81.31
2019-05-20T22:55:50.534Z,82.27
2019-05-20T22:58:18.796Z,80.83
2019-05-20T23:00:47.051Z,81.87
2019-05-20T23:03:15.225Z,81.55
2019-05-20T23:05:43.428Z,82.59
2019-05-20T23:08:11.644Z,81.85
2019-05-20T23:10:39.886Z,83.45
2019-05-20T23:13:08.284Z,82.06
2019-05-20T23:15:36.511Z,85.05
2019-05-20T23:18:04.776Z,82.27
2019-05-20T23:20:32.947Z,82.61
2019-05-20T23:23:01.192Z,82.62
2019-05-20T23:25:29.373Z,84.96
2019-05-20T23:27:59.089Z,84.93
2019-05-20T23:30:27.300Z,80.84
2019-05-20T23:32:55.479Z,85.52
2019-05-20T23:35:23.871Z,82.75
2019-05-20T23:37:52.131Z,85.18
2019-05-20T23:40:20.281Z,84.32
2019-05-20T23:42:48.553Z,82.25
2019-05-20T23:45:16.806Z,81.99
2019-05-20T23:47:44.967Z,83.41
2019-05-20T23:50:13.479Z,82.12
2019-05-20T23:52:41.641Z,82.65
2019-05-20T23:55:10.208Z,82.65
2019-05-20T23:57:38.397Z,82.36
